Baugh, Oklahoma
Current Conditions -  °F | °C
As of 1:35 PM on Friday 31 Oct 2014 (Local Time) from KOWP Reporting Station
Clear Clear  
Wind Chill: 55°   Ceiling: Unl
Heat Index: 55°   Visibility: 10mi
Dew Point: 26°   Wind: 12mph
Humidity: 32%   Direction: 360°N
Pressure: 30.41"   Gusts: 17mph
Location:  36.248°N, 96.4789°W
Report Text: KOWP 311835Z AUTO 36010G15KT 10SM CLR 13/M03 A3041 RMK AO2 T01291034
Loading
Personal Weather Stations






























Interactive Weather Map New forecast layout! Learn more

10-Day Weather Forecast

Advertisements
Track Severe Weather on mobile